Time;durP1;ratioP1;P1;durP2;ratioP2;P2;SDS_P1;SDS_P2;PMS_P1;PMS_P2;Temp;Humidity;BMP_temperature;BMP_pressure;BME280_temperature;BME280_humidity;BME280_pressure;Samples;Min_cycle;Max_cycle;Signal;HPM_P1;HPM_P2
2021/07/25 00:00:13;;;;;;;66.50;42.00;;;18.40;92.70;;;;;;5095495;28;20020;-37
2021/07/25 00:02:39;;;;;;;64.60;41.42;;;18.40;92.80;;;;;;5095479;28;20149;-37
2021/07/25 00:05:07;;;;;;;57.58;39.33;;;18.40;92.90;;;;;;5095472;28;20058;-37
2021/07/25 00:07:33;;;;;;;55.13;37.50;;;18.40;92.80;;;;;;5095286;28;20029;-37
2021/07/25 00:10:01;;;;;;;62.50;39.97;;;18.40;92.70;;;;;;5095265;28;20024;-37
2021/07/25 00:12:27;;;;;;;61.80;40.63;;;18.40;92.70;;;;;;5095408;28;20052;-37
2021/07/25 00:14:52;;;;;;;55.90;37.47;;;18.40;92.60;;;;;;5095486;28;20101;-37
2021/07/25 00:17:18;;;;;;;58.28;41.05;;;18.40;92.60;;;;;;5095214;28;20069;-38
2021/07/25 00:19:44;;;;;;;61.63;39.00;;;18.50;92.70;;;;;;5095055;28;20099;-38
2021/07/25 00:22:09;;;;;;;61.97;41.13;;;18.50;92.50;;;;;;5095143;28;20389;-37
2021/07/25 00:24:37;;;;;;;59.03;39.42;;;18.50;92.20;;;;;;5095124;28;20028;-37
2021/07/25 00:27:04;;;;;;;65.53;41.80;;;18.30;92.30;;;;;;5095210;28;20440;-37
2021/07/25 00:29:30;;;;;;;65.35;40.72;;;18.30;92.70;;;;;;5094995;28;20031;-37
2021/07/25 00:32:05;;;;;;;65.22;41.25;;;18.40;92.50;;;;;;5093397;28;20047;-37
2021/07/25 00:34:33;;;;;;;66.18;40.90;;;18.30;92.30;;;;;;5094789;28;20105;-37
2021/07/25 00:36:59;;;;;;;57.97;37.33;;;18.30;92.50;;;;;;5094995;28;20470;-37
2021/07/25 00:39:25;;;;;;;58.53;38.05;;;18.30;92.50;;;;;;5094863;28;20012;-37
2021/07/25 00:41:52;;;;;;;59.75;40.40;;;18.30;92.50;;;;;;5093357;28;20036;-38
2021/07/25 00:44:19;;;;;;;59.08;38.40;;;18.20;92.50;;;;;;5094579;28;20020;-37
2021/07/25 00:46:54;;;;;;;57.55;38.58;;;18.20;93.00;;;;;;5094740;28;20039;-37
2021/07/25 00:49:20;;;;;;;57.08;37.95;;;18.10;93.10;;;;;;5094932;28;20053;-37
2021/07/25 00:51:46;;;;;;;55.35;37.95;;;18.10;93.10;;;;;;5094538;28;20418;-37
2021/07/25 00:54:13;;;;;;;66.50;40.03;;;18.10;93.00;;;;;;5094281;28;20027;-38
2021/07/25 00:56:40;;;;;;;67.13;41.58;;;18.10;93.40;;;;;;5094307;28;20077;-38
2021/07/25 00:59:05;;;;;;;65.30;42.20;;;18.10;93.00;;;;;;5094237;28;20020;-35
2021/07/25 01:01:31;;;;;;;65.00;40.30;;;18.10;92.90;;;;;;5094166;28;20103;-36
2021/07/25 01:04:16;;;;;;;61.38;42.05;;;18.00;93.10;;;;;;5092636;28;20024;-36
2021/07/25 01:06:44;;;;;;;63.45;41.35;;;18.10;93.30;;;;;;5094381;28;20035;-35
2021/07/25 01:09:21;;;;;;;64.47;39.55;;;18.10;93.10;;;;;;5094046;28;20031;-35
2021/07/25 01:11:53;;;;;;;64.18;38.72;;;18.00;93.50;;;;;;5093959;28;20031;-35
2021/07/25 01:14:28;;;;;;;61.92;42.15;;;18.00;93.40;;;;;;5094136;28;20028;-35
2021/07/25 01:17:27;;;;;;;61.85;39.63;;;18.00;93.50;;;;;;5094227;28;20024;-35
2021/07/25 01:20:03;;;;;;;68.05;39.25;;;18.00;93.30;;;;;;5093874;28;20016;-36
2021/07/25 01:22:31;;;;;;;60.65;38.00;;;18.00;93.20;;;;;;5093986;28;20410;-38
2021/07/25 01:24:57;;;;;;;66.18;40.15;;;18.00;93.30;;;;;;5095026;28;20028;-36
2021/07/25 01:27:28;;;;;;;54.63;37.92;;;18.00;93.20;;;;;;5094206;28;20024;-36
2021/07/25 01:29:57;;;;;;;67.00;39.90;;;17.90;93.20;;;;;;5094177;28;20535;-36
2021/07/25 01:32:25;;;;;;;64.90;38.75;;;17.90;93.30;;;;;;5094239;28;20020;-35
2021/07/25 01:34:54;;;;;;;60.58;39.47;;;17.80;93.40;;;;;;5094105;28;20100;-35
2021/07/25 01:37:22;;;;;;;64.63;41.22;;;17.90;93.60;;;;;;5094269;28;20118;-37
2021/07/25 01:39:47;;;;;;;55.67;36.03;;;17.90;93.50;;;;;;5092807;28;20027;-36
2021/07/25 01:42:29;;;;;;;57.45;36.45;;;17.80;93.60;;;;;;5093750;28;20469;-36
2021/07/25 01:44:55;;;;;;;55.45;36.63;;;17.80;93.90;;;;;;5094215;28;20043;-36
2021/07/25 01:47:20;;;;;;;60.25;37.20;;;17.80;93.90;;;;;;5094376;28;20419;-36
2021/07/25 01:49:46;;;;;;;54.55;37.08;;;17.80;93.90;;;;;;5093596;28;20111;-36
2021/07/25 01:52:12;;;;;;;61.15;39.03;;;17.80;93.90;;;;;;5091995;28;20035;-35
2021/07/25 01:54:37;;;;;;;57.28;36.80;;;17.80;93.60;;;;;;5093294;28;20538;-36
2021/07/25 01:57:03;;;;;;;53.63;37.00;;;17.80;93.80;;;;;;5093290;28;20024;-35
2021/07/25 01:59:29;;;;;;;55.33;33.03;;;17.80;93.70;;;;;;5093228;28;20048;-36
2021/07/25 02:01:54;;;;;;;55.47;36.33;;;17.70;93.90;;;;;;5093056;28;20108;-44
2021/07/25 02:04:20;;;;;;;55.45;37.42;;;17.80;94.00;;;;;;5091826;28;20479;-35
2021/07/25 02:06:45;;;;;;;53.75;36.45;;;17.80;93.80;;;;;;5093582;28;20099;-36
2021/07/25 02:09:13;;;;;;;67.55;41.00;;;17.70;93.90;;;;;;5092975;28;20035;-36
2021/07/25 02:11:39;;;;;;;62.33;37.50;;;17.80;94.00;;;;;;5093039;28;20028;-36
2021/07/25 02:14:05;;;;;;;69.40;39.80;;;17.80;93.90;;;;;;5092964;28;20028;-35
2021/07/25 02:16:31;;;;;;;71.78;39.08;;;17.70;93.90;;;;;;5093147;28;20025;-36
2021/07/25 02:18:56;;;;;;;60.35;38.33;;;17.80;94.10;;;;;;5092925;28;20025;-36
2021/07/25 02:21:22;;;;;;;62.97;39.40;;;17.80;94.00;;;;;;5092762;28;20024;-36
2021/07/25 02:23:48;;;;;;;70.57;37.65;;;17.70;93.80;;;;;;5092904;28;20074;-36
2021/07/25 02:26:13;;;;;;;61.20;38.08;;;17.70;93.80;;;;;;5093133;28;20028;-36
2021/07/25 02:28:39;;;;;;;56.85;36.75;;;17.70;93.80;;;;;;5092845;28;20032;-35
2021/07/25 02:31:05;;;;;;;52.47;36.00;;;17.70;93.70;;;;;;5092598;28;20047;-35
2021/07/25 02:33:30;;;;;;;61.78;38.08;;;17.70;93.90;;;;;;5092837;28;20100;-36
2021/07/25 02:35:56;;;;;;;61.47;39.00;;;17.70;93.90;;;;;;5092855;28;20020;-35
2021/07/25 02:38:22;;;;;;;65.20;40.10;;;17.70;93.90;;;;;;5092756;28;20020;-36
2021/07/25 02:40:48;;;;;;;61.05;38.67;;;17.70;93.70;;;;;;5093049;28;20031;-36
2021/07/25 02:43:13;;;;;;;60.75;38.65;;;17.70;93.60;;;;;;5093023;28;20137;-36
2021/07/25 02:45:39;;;;;;;56.88;37.10;;;17.70;93.70;;;;;;5092903;28;20376;-36
2021/07/25 02:48:05;;;;;;;62.00;36.75;;;17.70;93.70;;;;;;5092999;28;20468;-36
2021/07/25 02:50:31;;;;;;;66.30;38.10;;;17.70;93.70;;;;;;5092508;28;20047;-36
2021/07/25 02:52:56;;;;;;;69.20;36.75;;;17.70;93.70;;;;;;5092681;28;20019;-36
2021/07/25 02:55:22;;;;;;;50.10;32.78;;;17.50;93.80;;;;;;5092811;28;20348;-36
2021/07/25 02:57:48;;;;;;;59.92;36.30;;;17.40;94.10;;;;;;5092774;28;20032;-36
2021/07/25 03:00:13;;;;;;;57.22;33.20;;;17.50;94.30;;;;;;5092611;28;20028;-36
2021/07/25 03:02:39;;;;;;;58.75;35.67;;;17.40;94.10;;;;;;5092805;28;20106;-36
2021/07/25 03:05:06;;;;;;;50.92;34.60;;;17.40;94.20;;;;;;5091534;28;20032;-37
2021/07/25 03:07:31;;;;;;;60.42;37.78;;;17.40;94.30;;;;;;5092729;28;20035;-36
2021/07/25 03:09:57;;;;;;;58.92;35.50;;;17.40;94.50;;;;;;5092502;28;20024;-36
2021/07/25 03:12:22;;;;;;;54.60;34.97;;;17.50;94.00;;;;;;5092362;28;20031;-35
2021/07/25 03:14:48;;;;;;;60.53;36.80;;;17.40;94.10;;;;;;5095747;28;20468;-36
2021/07/25 03:17:13;;;;;;;50.10;32.95;;;17.40;94.30;;;;;;5096378;28;20055;-36
2021/07/25 03:19:39;;;;;;;55.17;33.63;;;17.30;94.30;;;;;;5096564;28;20021;-35
2021/07/25 03:22:08;;;;;;;62.28;35.72;;;17.30;94.60;;;;;;5096357;28;20032;-36
2021/07/25 03:24:34;;;;;;;59.92;36.30;;;17.30;94.60;;;;;;5094919;28;20379;-36
2021/07/25 03:27:00;;;;;;;62.30;36.22;;;17.40;94.30;;;;;;5096143;28;20039;-36
2021/07/25 03:29:25;;;;;;;67.57;38.50;;;17.30;94.20;;;;;;5096275;28;20035;-36
2021/07/25 03:31:51;;;;;;;61.70;36.92;;;17.30;94.30;;;;;;5095844;28;20094;-35
2021/07/25 03:34:17;;;;;;;66.53;35.95;;;17.30;94.40;;;;;;5096072;28;20028;-36
2021/07/25 03:36:43;;;;;;;65.40;37.03;;;17.30;94.30;;;;;;5096064;28;20020;-36
2021/07/25 03:39:12;;;;;;;58.08;36.22;;;17.40;94.00;;;;;;5096193;28;20541;-37
2021/07/25 03:41:38;;;;;;;60.40;35.13;;;17.40;94.00;;;;;;5095923;28;20070;-37
2021/07/25 03:44:04;;;;;;;58.67;36.20;;;17.30;93.60;;;;;;5096169;28;20471;-37
2021/07/25 03:46:30;;;;;;;64.90;39.13;;;17.30;93.80;;;;;;5095981;28;20042;-35
2021/07/25 03:48:56;;;;;;;56.25;36.47;;;17.30;94.00;;;;;;5095852;28;20028;-37
2021/07/25 03:51:22;;;;;;;58.17;35.75;;;17.30;94.00;;;;;;5095607;28;20038;-37
2021/07/25 03:53:47;;;;;;;56.90;34.17;;;17.30;94.00;;;;;;5095967;28;20383;-38
2021/07/25 03:56:13;;;;;;;58.30;36.03;;;17.30;94.20;;;;;;5096091;28;20024;-35
2021/07/25 03:58:39;;;;;;;67.22;35.00;;;17.30;94.30;;;;;;5095506;28;20035;-35
2021/07/25 04:01:04;;;;;;;49.35;32.28;;;17.30;94.20;;;;;;5095769;28;20103;-36
2021/07/25 04:03:30;;;;;;;59.38;37.35;;;17.30;94.10;;;;;;5095743;28;20376;-35
2021/07/25 04:05:55;;;;;;;55.28;33.30;;;17.30;94.00;;;;;;5095423;28;20027;-35
2021/07/25 04:08:21;;;;;;;50.30;30.63;;;17.20;93.70;;;;;;5096301;28;20128;-35
2021/07/25 04:10:47;;;;;;;54.95;31.90;;;17.10;93.90;;;;;;5095257;28;20039;-36
2021/07/25 04:13:13;;;;;;;51.10;31.80;;;17.10;94.10;;;;;;5095462;28;20376;-36
2021/07/25 04:15:44;;;;;;;55.33;32.65;;;17.10;94.20;;;;;;5095448;28;20069;-36
2021/07/25 04:18:10;;;;;;;47.20;31.85;;;17.20;94.20;;;;;;5095470;28;20020;-36
2021/07/25 04:20:35;;;;;;;45.95;31.40;;;17.20;94.20;;;;;;5095089;28;20487;-36
2021/07/25 04:23:02;;;;;;;49.35;31.60;;;17.20;94.20;;;;;;5095345;28;20039;-36
2021/07/25 04:25:29;;;;;;;49.17;32.78;;;17.20;94.30;;;;;;5093437;28;20488;-36
2021/07/25 04:27:56;;;;;;;53.83;31.00;;;17.30;94.00;;;;;;5095299;28;20027;-35
2021/07/25 04:30:23;;;;;;;58.28;36.08;;;17.30;94.00;;;;;;5094782;28;20119;-36
2021/07/25 04:32:49;;;;;;;66.35;36.47;;;17.30;93.60;;;;;;5095301;28;20092;-36
2021/07/25 04:35:17;;;;;;;59.67;38.22;;;17.30;93.50;;;;;;5094908;28;20032;-36
2021/07/25 04:37:48;;;;;;;55.88;36.45;;;17.40;93.50;;;;;;5095070;28;20020;-35
2021/07/25 04:40:16;;;;;;;60.58;37.00;;;17.50;93.00;;;;;;5094962;28;20028;-36
2021/07/25 04:42:49;;;;;;;55.47;35.90;;;17.50;93.20;;;;;;5095271;28;20024;-36
2021/07/25 04:45:19;;;;;;;53.85;34.22;;;17.30;93.20;;;;;;5094919;28;20403;-36
2021/07/25 04:48:10;;;;;;;56.47;34.88;;;17.40;93.50;;;;;;5094639;28;20039;-37
2021/07/25 04:50:44;;;;;;;56.90;35.97;;;17.50;93.20;;;;;;5094755;28;20028;-36
2021/07/25 04:53:23;;;;;;;60.13;35.97;;;17.50;93.10;;;;;;5094819;28;20103;-37
2021/07/25 04:55:57;;;;;;;61.23;37.70;;;17.40;93.60;;;;;;5094503;28;20069;-37
2021/07/25 04:59:03;;;;;;;62.40;36.53;;;17.40;93.60;;;;;;5094508;28;20250;-37
2021/07/25 05:01:34;;;;;;;64.10;39.00;;;17.40;93.70;;;;;;5092231;28;20063;-37
2021/07/25 05:04:02;;;;;;;58.25;36.30;;;17.50;93.60;;;;;;5094043;28;20036;-37
2021/07/25 05:06:31;;;;;;;57.75;37.22;;;17.50;93.60;;;;;;5094244;28;20024;-37
2021/07/25 05:08:57;;;;;;;59.15;34.20;;;17.50;93.50;;;;;;5094264;28;20035;-37
2021/07/25 05:11:31;;;;;;;57.10;36.33;;;17.60;93.50;;;;;;5094094;28;20557;-37
2021/07/25 05:14:00;;;;;;;51.03;32.42;;;17.70;93.60;;;;;;5094184;28;20066;-36
2021/07/25 05:16:41;;;;;;;60.55;36.78;;;17.70;93.50;;;;;;5094076;28;20031;-36
2021/07/25 05:19:29;;;;;;;58.40;35.95;;;17.80;93.40;;;;;;5093049;28;20027;-36
2021/07/25 05:22:17;;;;;;;63.13;37.45;;;17.80;93.30;;;;;;5094387;28;20367;-35
2021/07/25 05:24:44;;;;;;;54.30;34.22;;;17.80;93.20;;;;;;5094110;28;20024;-35
2021/07/25 05:27:19;;;;;;;58.13;34.92;;;17.80;93.20;;;;;;5094022;28;20024;-35
2021/07/25 05:29:46;;;;;;;58.58;34.72;;;17.90;93.30;;;;;;5093914;28;20028;-35
2021/07/25 05:32:12;;;;;;;54.85;36.53;;;17.90;93.20;;;;;;5093659;28;20071;-35
2021/07/25 05:34:38;;;;;;;65.00;36.22;;;18.00;93.40;;;;;;5094143;28;20046;-37
2021/07/25 05:37:03;;;;;;;53.30;33.67;;;18.10;93.20;;;;;;5093398;28;20450;-37
2021/07/25 05:39:29;;;;;;;58.15;36.25;;;18.10;93.30;;;;;;5092392;28;20024;-36
2021/07/25 05:41:55;;;;;;;47.42;32.58;;;18.10;93.50;;;;;;5093641;28;20020;-36
2021/07/25 05:44:20;;;;;;;50.95;34.38;;;18.10;93.60;;;;;;5093531;28;20027;-37
2021/07/25 05:46:46;;;;;;;58.38;32.80;;;18.20;93.40;;;;;;5093513;28;20035;-37
2021/07/25 05:49:11;;;;;;;52.20;35.17;;;18.30;93.00;;;;;;5093648;28;20028;-37
2021/07/25 05:51:37;;;;;;;45.05;30.00;;;18.40;92.60;;;;;;5091994;28;20089;-36
2021/07/25 05:54:03;;;;;;;48.42;30.05;;;18.30;92.60;;;;;;5093773;28;20027;-37
2021/07/25 05:56:28;;;;;;;47.67;29.35;;;18.40;92.50;;;;;;5092016;28;20051;-36
2021/07/25 05:58:54;;;;;;;44.03;30.50;;;18.50;92.40;;;;;;5093325;28;20020;-36
2021/07/25 06:01:19;;;;;;;41.75;28.70;;;18.50;91.90;;;;;;5093654;28;20036;-36
2021/07/25 06:03:45;;;;;;;41.85;29.60;;;18.60;91.90;;;;;;5093229;28;20478;-36
2021/07/25 06:06:11;;;;;;;39.08;25.15;;;18.60;91.60;;;;;;5093662;28;20043;-36
2021/07/25 06:08:36;;;;;;;33.20;21.70;;;18.70;91.00;;;;;;5093643;28;20073;-37
2021/07/25 06:11:02;;;;;;;31.02;20.50;;;18.60;91.00;;;;;;5093133;28;20173;-37
2021/07/25 06:13:27;;;;;;;29.90;21.40;;;18.70;90.70;;;;;;5093168;28;20017;-37
2021/07/25 06:15:53;;;;;;;29.85;20.98;;;18.70;90.30;;;;;;5093216;28;20495;-37
2021/07/25 06:18:19;;;;;;;36.70;20.42;;;18.70;90.60;;;;;;5092976;28;20028;-36
2021/07/25 06:20:44;;;;;;;34.92;19.98;;;18.90;90.50;;;;;;5093707;28;20123;-38
2021/07/25 06:23:13;;;;;;;33.90;21.30;;;19.00;89.90;;;;;;5092998;28;20036;-36
2021/07/25 06:25:40;;;;;;;23.60;18.92;;;18.90;90.30;;;;;;5093322;28;20071;-36
2021/07/25 06:28:06;;;;;;;25.42;18.08;;;19.00;89.90;;;;;;5092826;28;20012;-37
2021/07/25 06:30:32;;;;;;;23.30;18.35;;;19.10;89.60;;;;;;5093054;28;20468;-36
2021/07/25 06:33:08;;;;;;;22.75;17.02;;;19.10;89.30;;;;;;5092932;28;20024;-36
2021/07/25 06:35:35;;;;;;;28.98;18.30;;;19.30;88.70;;;;;;5093033;28;20016;-36
2021/07/25 06:38:06;;;;;;;23.27;16.75;;;19.30;88.50;;;;;;5093487;28;20043;-36
2021/07/25 06:40:33;;;;;;;23.35;16.27;;;19.40;88.20;;;;;;5092752;28;20031;-36
2021/07/25 06:43:00;;;;;;;23.10;14.90;;;19.50;86.80;;;;;;5092733;28;20032;-36
2021/07/25 06:45:27;;;;;;;16.73;13.10;;;19.50;86.80;;;;;;5092894;28;20531;-37
2021/07/25 06:47:53;;;;;;;19.85;12.55;;;19.60;86.10;;;;;;5094969;28;20361;-36
2021/07/25 06:50:20;;;;;;;21.55;12.75;;;19.80;86.20;;;;;;5097495;28;20021;-36
2021/07/25 06:52:47;;;;;;;15.00;10.80;;;19.80;85.60;;;;;;5096945;28;20111;-37
2021/07/25 06:55:13;;;;;;;20.08;11.50;;;19.80;85.50;;;;;;5096787;28;20023;-36
2021/07/25 06:57:39;;;;;;;20.35;13.82;;;19.80;85.70;;;;;;5097007;28;20016;-36
2021/07/25 07:00:06;;;;;;;14.88;11.57;;;20.20;84.30;;;;;;5097672;28;20073;-36
2021/07/25 07:02:51;;;;;;;17.17;9.52;;;20.30;83.80;;;;;;5097052;28;20027;-40
2021/07/25 07:05:18;;;;;;;16.80;9.85;;;20.30;83.40;;;;;;5096966;28;20034;-36
2021/07/25 07:07:49;;;;;;;14.88;9.85;;;20.30;83.90;;;;;;5097419;28;20032;-37
2021/07/25 07:10:16;;;;;;;12.00;8.38;;;20.30;82.70;;;;;;5096739;28;20055;-37
2021/07/25 07:12:44;;;;;;;16.45;8.10;;;20.20;82.40;;;;;;5096489;28;20121;-37
2021/07/25 07:15:10;;;;;;;13.75;8.25;;;20.30;82.40;;;;;;5096867;28;20024;-39
2021/07/25 07:17:37;;;;;;;12.40;6.90;;;20.20;82.00;;;;;;5095401;28;20443;-36
2021/07/25 07:20:09;;;;;;;11.43;7.72;;;20.30;81.60;;;;;;5096894;28;20021;-36
2021/07/25 07:22:35;;;;;;;10.50;6.72;;;20.40;81.70;;;;;;5096659;28;20024;-37
2021/07/25 07:25:01;;;;;;;7.93;5.68;;;20.80;81.00;;;;;;5096725;28;20020;-36
2021/07/25 07:27:27;;;;;;;10.32;7.35;;;20.80;80.70;;;;;;5096708;28;20020;-37
2021/07/25 07:29:54;;;;;;;12.52;6.03;;;20.80;80.80;;;;;;5096700;28;20032;-37
2021/07/25 07:32:20;;;;;;;12.73;5.03;;;21.10;78.90;;;;;;5096334;28;20089;-36
2021/07/25 07:34:45;;;;;;;9.65;5.20;;;21.00;77.70;;;;;;5096298;28;20028;-36
2021/07/25 07:37:11;;;;;;;7.57;5.40;;;21.00;77.90;;;;;;5096467;28;20046;-36
2021/07/25 07:39:41;;;;;;;8.80;5.35;;;21.00;77.40;;;;;;5095979;28;20135;-36
2021/07/25 07:42:08;;;;;;;9.48;6.47;;;21.00;77.10;;;;;;5096412;28;20103;-37
2021/07/25 07:44:35;;;;;;;11.40;5.93;;;21.10;77.10;;;;;;5096884;28;20032;-38
2021/07/25 07:47:01;;;;;;;9.98;5.70;;;21.50;75.80;;;;;;5095905;28;20030;-37
2021/07/25 07:49:27;;;;;;;7.03;4.35;;;22.20;73.10;;;;;;5096284;28;20098;-37
2021/07/25 07:51:53;;;;;;;8.90;4.43;;;22.20;72.10;;;;;;5095808;28;20048;-37
2021/07/25 07:54:19;;;;;;;8.13;5.00;;;22.20;71.30;;;;;;5095696;28;20356;-36
2021/07/25 07:56:44;;;;;;;8.00;4.60;;;22.00;72.80;;;;;;5095632;28;20043;-35
2021/07/25 07:59:10;;;;;;;6.72;4.80;;;22.70;70.90;;;;;;5094829;28;20032;-36
2021/07/25 08:01:36;;;;;;;7.45;4.70;;;23.00;69.50;;;;;;5095775;28;20052;-36
2021/07/25 08:04:02;;;;;;;5.90;4.50;;;23.20;68.00;;;;;;5095525;28;20076;-36
2021/07/25 08:06:27;;;;;;;6.55;4.70;;;23.60;66.70;;;;;;5095524;28;20024;-36
2021/07/25 08:08:53;;;;;;;5.00;4.25;;;23.60;66.60;;;;;;5095483;28;20035;-36
2021/07/25 08:11:18;;;;;;;8.05;4.85;;;23.70;65.90;;;;;;5094338;28;20126;-36
2021/07/25 08:13:44;;;;;;;9.82;5.03;;;23.70;66.30;;;;;;5095638;28;20059;-36
2021/07/25 08:16:10;;;;;;;15.55;8.30;;;24.20;64.50;;;;;;5095711;28;20093;-35
2021/07/25 08:18:36;;;;;;;12.57;6.15;;;24.00;66.00;;;;;;5095316;28;20032;-36
2021/07/25 08:21:03;;;;;;;10.60;4.55;;;24.50;63.80;;;;;;5095271;28;20392;-35
2021/07/25 08:23:29;;;;;;;7.32;5.13;;;24.30;63.80;;;;;;5095400;28;20024;-36
2021/07/25 08:25:54;;;;;;;6.65;3.85;;;23.90;64.50;;;;;;5094192;28;20545;-36
2021/07/25 08:28:20;;;;;;;8.00;5.30;;;24.50;62.50;;;;;;5095571;28;20085;-36
2021/07/25 08:30:45;;;;;;;8.82;4.85;;;24.60;62.80;;;;;;5094777;28;20111;-38
2021/07/25 08:33:11;;;;;;;5.78;4.32;;;24.10;63.50;;;;;;5093770;28;20035;-36
2021/07/25 08:35:37;;;;;;;8.07;5.85;;;24.70;60.90;;;;;;5095245;28;20103;-36
2021/07/25 08:38:03;;;;;;;9.05;4.80;;;25.10;60.70;;;;;;5095302;28;20094;-36
2021/07/25 08:40:31;;;;;;;18.77;10.23;;;25.10;59.80;;;;;;5095183;28;20024;-36
2021/07/25 08:43:13;;;;;;;15.30;9.18;;;24.80;60.10;;;;;;5095107;28;20032;-36
2021/07/25 08:45:42;;;;;;;15.07;8.75;;;24.50;61.80;;;;;;5095038;28;20063;-36
2021/07/25 08:48:11;;;;;;;11.18;5.55;;;24.80;61.60;;;;;;5094894;28;20024;-36
2021/07/25 08:50:49;;;;;;;8.32;4.65;;;25.20;60.80;;;;;;5095027;28;20028;-36
2021/07/25 08:53:18;;;;;;;7.35;4.13;;;25.40;58.70;;;;;;5095061;28;20036;-36
2021/07/25 08:55:46;;;;;;;6.37;3.77;;;25.40;59.20;;;;;;5094940;28;20463;-36
2021/07/25 08:58:12;;;;;;;6.65;3.95;;;25.80;57.60;;;;;;5095050;28;20266;-36
2021/07/25 09:00:38;;;;;;;8.48;4.32;;;25.20;59.60;;;;;;5094759;28;20357;-36
2021/07/25 09:03:06;;;;;;;8.82;4.75;;;25.80;57.40;;;;;;5094751;28;20027;-36
2021/07/25 09:05:32;;;;;;;5.88;4.55;;;26.30;55.50;;;;;;5094811;28;20414;-36
2021/07/25 09:08:01;;;;;;;4.55;3.85;;;26.50;55.60;;;;;;5094673;28;20031;-36
2021/07/25 09:10:27;;;;;;;7.60;4.57;;;25.80;58.20;;;;;;5094155;28;20073;-38
2021/07/25 09:12:55;;;;;;;5.35;4.47;;;25.40;59.70;;;;;;5093950;28;20024;-36
2021/07/25 09:15:28;;;;;;;8.98;4.82;;;26.40;56.90;;;;;;5094371;28;20073;-37
2021/07/25 09:17:55;;;;;;;7.85;4.07;;;26.60;55.60;;;;;;5094725;28;20024;-36
2021/07/25 09:20:27;;;;;;;5.20;3.63;;;25.60;57.40;;;;;;5094199;28;20034;-36
2021/07/25 09:22:52;;;;;;;5.93;3.83;;;26.60;55.10;;;;;;5095108;28;20468;-36
2021/07/25 09:25:21;;;;;;;6.35;3.67;;;26.20;57.10;;;;;;5093986;28;20030;-36
2021/07/25 09:27:58;;;;;;;5.28;3.53;;;25.90;56.60;;;;;;5093613;28;20036;-36
2021/07/25 09:30:28;;;;;;;5.57;4.35;;;26.00;55.50;;;;;;5093438;28;20067;-36
2021/07/25 09:32:53;;;;;;;6.13;4.03;;;25.80;55.90;;;;;;5092584;28;20032;-36
2021/07/25 09:35:30;;;;;;;5.53;3.67;;;26.30;55.50;;;;;;5094454;28;20372;-36
2021/07/25 09:38:08;;;;;;;9.93;4.07;;;27.10;53.10;;;;;;5094507;28;20031;-38
2021/07/25 09:40:38;;;;;;;3.80;3.40;;;27.20;53.30;;;;;;5094702;28;20017;-37
2021/07/25 09:43:24;;;;;;;10.35;3.75;;;26.00;56.20;;;;;;5093762;28;20020;-36
2021/07/25 09:45:50;;;;;;;4.97;3.33;;;26.90;54.10;;;;;;5094164;28;20099;-38
2021/07/25 09:48:19;;;;;;;8.45;3.55;;;27.50;51.40;;;;;;5092468;28;20024;-36
2021/07/25 09:50:46;;;;;;;5.53;3.97;;;27.80;51.50;;;;;;5093512;28;20048;-37
2021/07/25 09:53:13;;;;;;;5.07;3.30;;;27.50;52.10;;;;;;5093288;28;20480;-36
2021/07/25 09:55:38;;;;;;;9.27;3.90;;;28.50;50.10;;;;;;5093168;28;20063;-36
2021/07/25 09:58:07;;;;;;;11.35;5.25;;;28.80;49.00;;;;;;5094324;28;20348;-49
2021/07/25 10:00:42;;;;;;;6.07;3.97;;;28.40;49.50;;;;;;5093305;28;20074;-47
2021/07/25 10:03:25;;;;;;;8.57;3.90;;;27.50;51.60;;;;;;5093309;28;20379;-49
2021/07/25 10:05:54;;;;;;;6.82;3.67;;;27.60;51.20;;;;;;5093634;28;20384;-50
2021/07/25 10:08:21;;;;;;;5.70;3.78;;;28.00;49.90;;;;;;5093363;28;20032;-50
2021/07/25 10:10:48;;;;;;;4.72;3.55;;;28.40;48.50;;;;;;5093099;28;20034;-49
2021/07/25 10:13:19;;;;;;;3.30;3.00;;;28.80;48.30;;;;;;5093421;28;20465;-50
2021/07/25 10:15:57;;;;;;;6.70;3.47;;;28.20;48.60;;;;;;5093739;28;20024;-48
2021/07/25 10:18:24;;;;;;;3.35;2.80;;;28.30;48.30;;;;;;5093363;28;20024;-49
2021/07/25 10:20:59;;;;;;;5.25;2.90;;;27.30;49.70;;;;;;5093129;28;20020;-48
2021/07/25 10:23:33;;;;;;;4.32;3.53;;;26.90;50.40;;;;;;5092591;28;20036;-48
2021/07/25 10:26:01;;;;;;;5.10;3.42;;;27.20;49.80;;;;;;5093561;28;20073;-51
2021/07/25 10:28:30;;;;;;;8.68;3.00;;;28.10;48.70;;;;;;5092927;28;20031;-52
2021/07/25 10:30:57;;;;;;;3.95;3.08;;;28.50;46.30;;;;;;5092632;28;20047;-51
2021/07/25 10:33:26;;;;;;;6.03;3.88;;;29.30;45.70;;;;;;5092671;28;20101;-51
2021/07/25 10:35:54;;;;;;;7.40;4.90;;;30.00;43.40;;;;;;5091892;28;20537;-48
2021/07/25 10:38:20;;;;;;;5.90;3.53;;;29.00;45.70;;;;;;5091184;28;20024;-47
2021/07/25 10:40:49;;;;;;;10.82;3.70;;;29.10;44.70;;;;;;5093085;28;20032;-47
2021/07/25 10:43:20;;;;;;;5.35;3.35;;;29.20;44.10;;;;;;5091631;28;20052;-50
2021/07/25 11:31:33;;;;;;;6.45;3.60;;;27.30;48.20;;;;;;5070902;28;20404;-49
2021/07/25 11:33:58;;;;;;;5.05;3.45;;;27.00;48.70;;;;;;5070231;28;20024;-48
2021/07/25 11:36:24;;;;;;;6.47;3.83;;;27.00;48.90;;;;;;5070476;28;20112;-48
2021/07/25 11:38:56;;;;;;;10.65;3.92;;;27.60;47.60;;;;;;5070225;28;20544;-48
2021/07/25 11:41:24;;;;;;;5.45;3.28;;;28.40;46.50;;;;;;5070435;28;20029;-48
2021/07/25 11:43:59;;;;;;;4.82;3.60;;;30.00;41.50;;;;;;5070149;28;20086;-47
2021/07/25 11:46:47;;;;;;;5.45;3.22;;;30.70;39.80;;;;;;5069994;28;20017;-52
2021/07/25 11:49:29;;;;;;;7.55;3.60;;;30.10;40.50;;;;;;5069747;28;20028;-52
2021/07/25 11:52:03;;;;;;;5.40;2.97;;;28.40;43.80;;;;;;5069882;28;20035;-50
2021/07/25 11:54:34;;;;;;;7.70;4.03;;;28.40;42.70;;;;;;5069952;28;20036;-50
2021/07/25 11:57:06;;;;;;;6.78;4.18;;;27.60;45.10;;;;;;5068209;28;20148;-50
2021/07/25 11:59:50;;;;;;;10.68;5.07;;;27.70;45.10;;;;;;5069501;28;20028;-48
2021/07/25 12:02:30;;;;;;;6.03;3.95;;;28.20;45.00;;;;;;5068384;28;20029;-51
2021/07/25 12:05:00;;;;;;;5.40;2.95;;;29.40;41.10;;;;;;5069959;28;20484;-49
2021/07/25 12:07:34;;;;;;;3.15;2.65;;;29.80;38.90;;;;;;5052334;28;20197;-49
2021/07/25 12:10:01;;;;;;;3.08;2.47;;;30.70;37.30;;;;;;5069657;28;20029;-48
2021/07/25 12:12:29;;;;;;;4.30;2.90;;;29.40;39.40;;;;;;5069490;28;20017;-47
2021/07/25 12:15:01;;;;;;;5.07;3.45;;;29.80;39.00;;;;;;5069203;28;20031;-47
2021/07/25 12:17:39;;;;;;;4.78;3.25;;;30.40;37.90;;;;;;5069121;28;20120;-48
2021/07/25 12:20:13;;;;;;;5.93;3.25;;;29.20;40.50;;;;;;5069435;28;20024;-49
2021/07/25 12:22:56;;;;;;;4.47;2.85;;;28.20;40.60;;;;;;5069685;28;20032;-49
2021/07/25 12:25:23;;;;;;;3.92;2.72;;;27.40;41.60;;;;;;5051754;28;20036;-47
2021/07/25 12:28:02;;;;;;;6.05;2.90;;;27.40;42.20;;;;;;5069910;28;20028;-46
2021/07/25 12:30:44;;;;;;;6.97;3.35;;;27.40;43.00;;;;;;5068825;28;20049;-48
2021/07/25 12:33:11;;;;;;;5.78;3.42;;;27.10;44.50;;;;;;5068154;28;20028;-47
2021/07/25 12:35:37;;;;;;;5.68;3.40;;;27.40;44.50;;;;;;5069133;28;20025;-49
2021/07/25 12:38:15;;;;;;;5.53;3.00;;;27.60;44.50;;;;;;5068818;28;20039;-52
2021/07/25 12:40:55;;;;;;;6.00;3.92;;;27.70;44.20;;;;;;5066976;28;20024;-54
2021/07/25 12:43:25;;;;;;;5.28;3.33;;;27.60;46.00;;;;;;5055798;28;20031;-49
2021/07/25 12:45:52;;;;;;;7.22;5.05;;;27.90;45.60;;;;;;5037491;28;20123;-51
2021/07/25 12:48:20;;;;;;;5.05;3.28;;;28.80;44.50;;;;;;5054155;28;20021;-49
2021/07/25 12:53:52;;;;;;;5.90;3.20;;;30.70;39.60;;;;;;5055533;28;20195;-50
2021/07/25 12:56:22;;;;;;;4.95;3.22;;;31.10;38.80;;;;;;5055316;28;20021;-49
2021/07/25 12:58:50;;;;;;;6.45;2.58;;;30.00;40.30;;;;;;5054090;28;20469;-53
2021/07/25 13:03:44;;;;;;;3.50;2.85;;;28.60;43.70;;;;;;5054123;28;20029;-46
2021/07/25 13:04:09;;;;;;;8.15;4.15;;;28.60;43.10;;;;;;5054437;28;20070;-49
2021/07/25 13:06:44;;;;;;;4.15;3.03;;;28.00;44.40;;;;;;5055268;28;20529;-50
2021/07/25 13:09:11;;;;;;;6.50;3.63;;;27.70;45.50;;;;;;5053784;28;20472;-48
2021/07/25 13:11:40;;;;;;;4.47;2.78;;;27.10;48.00;;;;;;5055049;28;20021;-50
2021/07/25 13:14:07;;;;;;;3.15;2.85;;;27.30;46.70;;;;;;5055146;28;20024;-49
2021/07/25 13:16:35;;;;;;;3.47;3.10;;;27.10;46.20;;;;;;5054985;28;20095;-47
2021/07/25 13:19:02;;;;;;;3.17;2.80;;;27.30;46.40;;;;;;5055880;28;20468;-46
2021/07/25 13:21:29;;;;;;;5.43;3.20;;;27.30;46.10;;;;;;5055614;28;20096;-49
2021/07/25 13:23:55;;;;;;;4.15;2.63;;;26.90;47.20;;;;;;5054004;28;20051;-50
2021/07/25 13:26:21;;;;;;;3.85;2.83;;;26.90;47.40;;;;;;5053641;28;20031;-49
2021/07/25 13:28:47;;;;;;;4.45;3.35;;;27.60;46.50;;;;;;5054501;28;20048;-49
2021/07/25 13:31:13;;;;;;;6.03;3.22;;;29.20;43.70;;;;;;5052760;28;20049;-50